首页
METAR-TAF:

METAR-TAF

机场 :

奧西耶克, 克罗地亚

纬度: 45-27N, 经度: 018-48E, 海拔: 88米

当前天气观测

该预报发布于28分钟前的00:30 UTC
风速5节,风向东南
温度 20°C
湿度 83%
气压 1014 hPa
能见度10公里或以上
散云层高于4300英尺

METAR: LDOS 170030Z 13005KT 9999 SCT043 20/17 Q1014

时间: 02:58 (00:58 UTC)

预报

该预报发布于1小时和33分钟前的23:25 UTC
预报有效从17日的 00点(UTC)到 18日的 00点(UTC)
风速6节,风向东转东南
能见度10公里或以上
散云层高于4500英尺
几率 30% :
短暂存在
从 17日的 00点(UTC)到 17日的 03点(UTC)
少量云层高于3000英尺, 积雨云.
雷暴, 雨
几率 30% :
短暂存在
从 17日的 14点(UTC)到 17日的 17点(UTC)
风速15节,风向西
少量云层高于4000英尺, 积雨云.
散云层高于4500英尺
雷暴, 雨,

TAF: LDOS 162325Z 1700/1800 11006KT 9999 SCT045 TX30/1713Z TN16/1703Z PROB30 TEMPO 1700/1703 TSRA FEW030CB PROB30 TEMPO 1714/1717 28015KT TSRA FEW040CB SCT045

超过4000个机场的气象观测和天气预报(METAR&TAF报告)。

可查询的气象台以黄色和红色小点在地图上表示。

将鼠标移到小点上方,可查看气象台名称。

然后点击查看天气观测和预报。

如需切换地图:点击带黑十字的绿色按钮放大地图;点击带横线的绿色按钮缩小地图;或者点击绿色箭头查看邻近地区的地图。


METAR-TAF: